sensor_id;sensor_type;location;lat;lon;timestamp;pressure;altitude;pressure_sealevel;temperature;humidity
71970;BME280;59838;52.152;5.436;2023-12-28T00:01:28;100789.28;;;9.22;100.00
71970;BME280;59838;52.152;5.436;2023-12-28T00:03:54;100794.13;;;9.25;100.00
71970;BME280;59838;52.152;5.436;2023-12-28T00:06:21;100799.31;;;9.25;100.00
71970;BME280;59838;52.152;5.436;2023-12-28T00:08:47;100791.81;;;9.30;100.00
71970;BME280;59838;52.152;5.436;2023-12-28T00:11:29;100806.06;;;9.35;100.00
71970;BME280;59838;52.152;5.436;2023-12-28T00:13:55;100812.66;;;9.37;100.00
71970;BME280;59838;52.152;5.436;2023-12-28T00:16:22;100819.91;;;9.42;100.00
71970;BME280;59838;52.152;5.436;2023-12-28T00:18:49;100816.53;;;9.41;100.00
71970;BME280;59838;52.152;5.436;2023-12-28T00:21:16;100824.47;;;9.40;100.00
71970;BME280;59838;52.152;5.436;2023-12-28T00:23:42;100822.16;;;9.45;100.00
71970;BME280;59838;52.152;5.436;2023-12-28T00:26:09;100823.59;;;9.47;100.00
71970;BME280;59838;52.152;5.436;2023-12-28T00:28:35;100822.78;;;9.47;100.00
71970;BME280;59838;52.152;5.436;2023-12-28T00:31:02;100834.97;;;9.46;100.00
71970;BME280;59838;52.152;5.436;2023-12-28T00:33:28;100842.56;;;9.48;100.00
71970;BME280;59838;52.152;5.436;2023-12-28T00:35:55;100839.97;;;9.48;100.00
71970;BME280;59838;52.152;5.436;2023-12-28T00:38:21;100847.75;;;9.48;100.00
71970;BME280;59838;52.152;5.436;2023-12-28T00:40:48;100849.50;;;9.47;100.00
71970;BME280;59838;52.152;5.436;2023-12-28T00:43:14;100853.28;;;9.45;100.00
71970;BME280;59838;52.152;5.436;2023-12-28T00:45:41;100850.22;;;9.41;100.00
71970;BME280;59838;52.152;5.436;2023-12-28T00:48:09;100852.81;;;9.41;100.00
71970;BME280;59838;52.152;5.436;2023-12-28T00:50:35;100853.97;;;9.39;100.00
71970;BME280;59838;52.152;5.436;2023-12-28T00:53:02;100858.34;;;9.38;100.00
71970;BME280;59838;52.152;5.436;2023-12-28T00:55:28;100862.38;;;9.41;100.00
71970;BME280;59838;52.152;5.436;2023-12-28T00:57:55;100857.84;;;9.43;100.00
71970;BME280;59838;52.152;5.436;2023-12-28T01:00:22;100860.59;;;9.41;100.00
71970;BME280;59838;52.152;5.436;2023-12-28T01:02:48;100868.56;;;9.40;100.00
71970;BME280;59838;52.152;5.436;2023-12-28T01:05:15;100858.88;;;9.33;100.00
71970;BME280;59838;52.152;5.436;2023-12-28T01:07:42;100847.06;;;9.31;100.00
71970;BME280;59838;52.152;5.436;2023-12-28T01:10:08;100849.66;;;9.31;100.00
71970;BME280;59838;52.152;5.436;2023-12-28T01:12:35;100853.59;;;9.27;100.00
71970;BME280;59838;52.152;5.436;2023-12-28T01:15:01;100851.63;;;9.29;100.00
71970;BME280;59838;52.152;5.436;2023-12-28T01:17:28;100852.13;;;9.24;100.00
71970;BME280;59838;52.152;5.436;2023-12-28T01:19:54;100856.16;;;9.27;100.00
71970;BME280;59838;52.152;5.436;2023-12-28T01:22:21;100865.09;;;9.24;100.00
71970;BME280;59838;52.152;5.436;2023-12-28T01:24:47;100861.88;;;9.22;100.00
71970;BME280;59838;52.152;5.436;2023-12-28T01:27:16;100863.84;;;9.20;100.00
71970;BME280;59838;52.152;5.436;2023-12-28T01:29:42;100874.53;;;9.17;100.00
71970;BME280;59838;52.152;5.436;2023-12-28T01:32:09;100880.69;;;9.16;100.00
71970;BME280;59838;52.152;5.436;2023-12-28T01:34:35;100870.38;;;9.08;100.00
71970;BME280;59838;52.152;5.436;2023-12-28T01:37:02;100877.53;;;9.06;100.00
71970;BME280;59838;52.152;5.436;2023-12-28T01:39:28;100875.91;;;9.05;100.00
71970;BME280;59838;52.152;5.436;2023-12-28T01:41:55;100873.16;;;9.06;100.00
71970;BME280;59838;52.152;5.436;2023-12-28T01:44:21;100869.09;;;9.04;100.00
71970;BME280;59838;52.152;5.436;2023-12-28T01:46:48;100867.28;;;9.12;100.00
71970;BME280;59838;52.152;5.436;2023-12-28T01:49:15;100874.25;;;9.12;100.00
71970;BME280;59838;52.152;5.436;2023-12-28T01:51:42;100865.47;;;9.13;100.00
71970;BME280;59838;52.152;5.436;2023-12-28T01:54:09;100879.91;;;9.15;100.00
71970;BME280;59838;52.152;5.436;2023-12-28T01:56:36;100881.38;;;9.10;100.00
71970;BME280;59838;52.152;5.436;2023-12-28T01:59:03;100878.50;;;9.05;100.00
71970;BME280;59838;52.152;5.436;2023-12-28T02:01:30;100889.50;;;9.07;100.00
71970;BME280;59838;52.152;5.436;2023-12-28T02:03:57;100883.34;;;9.08;100.00
71970;BME280;59838;52.152;5.436;2023-12-28T02:06:24;100882.66;;;9.14;100.00
71970;BME280;59838;52.152;5.436;2023-12-28T02:08:50;100878.44;;;9.13;100.00
71970;BME280;59838;52.152;5.436;2023-12-28T02:11:18;100887.69;;;9.15;100.00
71970;BME280;59838;52.152;5.436;2023-12-28T02:13:46;100881.66;;;9.15;100.00
71970;BME280;59838;52.152;5.436;2023-12-28T02:16:17;100871.84;;;9.10;100.00
71970;BME280;59838;52.152;5.436;2023-12-28T02:18:50;100881.72;;;9.07;100.00
71970;BME280;59838;52.152;5.436;2023-12-28T02:21:20;100879.13;;;9.07;100.00
71970;BME280;59838;52.152;5.436;2023-12-28T02:23:48;100875.72;;;9.06;100.00
71970;BME280;59838;52.152;5.436;2023-12-28T02:26:16;100872.00;;;9.09;100.00
71970;BME280;59838;52.152;5.436;2023-12-28T02:28:43;100849.47;;;9.09;100.00
71970;BME280;59838;52.152;5.436;2023-12-28T02:31:16;100854.94;;;9.14;100.00
71970;BME280;59838;52.152;5.436;2023-12-28T02:34:06;100869.69;;;9.14;100.00
71970;BME280;59838;52.152;5.436;2023-12-28T02:36:36;100860.59;;;9.18;100.00
71970;BME280;59838;52.152;5.436;2023-12-28T02:39:04;100857.47;;;9.23;100.00
71970;BME280;59838;52.152;5.436;2023-12-28T02:41:32;100859.72;;;9.26;100.00
71970;BME280;59838;52.152;5.436;2023-12-28T02:43:59;100861.19;;;9.28;100.00
71970;BME280;59838;52.152;5.436;2023-12-28T02:46:26;100852.41;;;9.29;100.00
71970;BME280;59838;52.152;5.436;2023-12-28T02:48:52;100839.75;;;9.35;100.00
71970;BME280;59838;52.152;5.436;2023-12-28T02:51:23;100841.63;;;9.41;100.00
71970;BME280;59838;52.152;5.436;2023-12-28T02:53:50;100850.69;;;9.45;100.00
71970;BME280;59838;52.152;5.436;2023-12-28T02:56:16;100840.75;;;9.48;100.00
71970;BME280;59838;52.152;5.436;2023-12-28T02:58:43;100834.59;;;9.49;100.00
71970;BME280;59838;52.152;5.436;2023-12-28T03:01:09;100828.75;;;9.47;100.00
71970;BME280;59838;52.152;5.436;2023-12-28T03:03:36;100830.91;;;9.44;100.00
71970;BME280;59838;52.152;5.436;2023-12-28T03:06:02;100838.53;;;9.45;100.00
71970;BME280;59838;52.152;5.436;2023-12-28T03:08:29;100832.53;;;9.45;100.00
71970;BME280;59838;52.152;5.436;2023-12-28T03:10:55;100827.19;;;9.46;100.00
71970;BME280;59838;52.152;5.436;2023-12-28T03:13:22;100837.19;;;9.49;100.00
71970;BME280;59838;52.152;5.436;2023-12-28T03:15:48;100847.09;;;9.46;100.00
71970;BME280;59838;52.152;5.436;2023-12-28T03:18:15;100839.69;;;9.43;100.00
71970;BME280;59838;52.152;5.436;2023-12-28T03:20:42;100839.97;;;9.48;100.00
71970;BME280;59838;52.152;5.436;2023-12-28T03:23:08;100838.28;;;9.55;100.00
71970;BME280;59838;52.152;5.436;2023-12-28T03:25:35;100825.31;;;9.55;100.00
71970;BME280;59838;52.152;5.436;2023-12-28T03:28:01;100846.63;;;9.65;100.00
71970;BME280;59838;52.152;5.436;2023-12-28T03:30:29;100847.88;;;9.69;100.00
71970;BME280;59838;52.152;5.436;2023-12-28T03:32:55;100837.94;;;9.73;100.00
71970;BME280;59838;52.152;5.436;2023-12-28T03:35:22;100838.13;;;9.72;100.00
71970;BME280;59838;52.152;5.436;2023-12-28T03:37:48;100837.50;;;9.69;100.00
71970;BME280;59838;52.152;5.436;2023-12-28T03:40:15;100828.94;;;9.69;100.00
71970;BME280;59838;52.152;5.436;2023-12-28T03:42:45;100820.69;;;9.65;100.00
71970;BME280;59838;52.152;5.436;2023-12-28T03:45:12;100826.31;;;9.69;100.00
71970;BME280;59838;52.152;5.436;2023-12-28T03:47:38;100825.31;;;9.70;100.00
71970;BME280;59838;52.152;5.436;2023-12-28T03:50:06;100835.53;;;9.72;100.00
71970;BME280;59838;52.152;5.436;2023-12-28T03:52:32;100820.97;;;9.70;100.00
71970;BME280;59838;52.152;5.436;2023-12-28T03:54:59;100833.94;;;9.70;100.00
71970;BME280;59838;52.152;5.436;2023-12-28T03:57:26;100822.91;;;9.68;100.00
71970;BME280;59838;52.152;5.436;2023-12-28T03:59:53;100827.81;;;9.63;100.00
71970;BME280;59838;52.152;5.436;2023-12-28T04:02:20;100828.19;;;9.60;100.00
71970;BME280;59838;52.152;5.436;2023-12-28T04:04:46;100829.19;;;9.59;100.00
71970;BME280;59838;52.152;5.436;2023-12-28T04:07:13;100832.38;;;9.61;100.00
71970;BME280;59838;52.152;5.436;2023-12-28T04:09:39;100830.16;;;9.58;100.00
71970;BME280;59838;52.152;5.436;2023-12-28T04:12:06;100829.00;;;9.61;100.00
71970;BME280;59838;52.152;5.436;2023-12-28T04:14:33;100824.34;;;9.56;100.00
71970;BME280;59838;52.152;5.436;2023-12-28T04:16:59;100826.47;;;9.52;100.00
71970;BME280;59838;52.152;5.436;2023-12-28T04:19:26;100832.81;;;9.50;100.00
71970;BME280;59838;52.152;5.436;2023-12-28T04:21:52;100845.44;;;9.53;100.00
71970;BME280;59838;52.152;5.436;2023-12-28T04:24:19;100833.44;;;9.52;100.00
71970;BME280;59838;52.152;5.436;2023-12-28T04:26:45;100840.25;;;9.53;100.00
71970;BME280;59838;52.152;5.436;2023-12-28T04:29:12;100823.06;;;9.52;100.00
71970;BME280;59838;52.152;5.436;2023-12-28T04:31:41;100840.41;;;9.51;100.00
71970;BME280;59838;52.152;5.436;2023-12-28T04:34:08;100818.22;;;9.49;100.00
71970;BME280;59838;52.152;5.436;2023-12-28T04:36:42;100814.94;;;9.55;100.00
71970;BME280;59838;52.152;5.436;2023-12-28T04:39:13;100830.59;;;9.62;100.00
71970;BME280;59838;52.152;5.436;2023-12-28T04:41:39;100844.66;;;9.67;100.00
71970;BME280;59838;52.152;5.436;2023-12-28T04:44:06;100834.28;;;9.67;100.00
71970;BME280;59838;52.152;5.436;2023-12-28T04:46:32;100831.50;;;9.69;100.00
71970;BME280;59838;52.152;5.436;2023-12-28T04:48:59;100843.66;;;9.68;100.00
71970;BME280;59838;52.152;5.436;2023-12-28T04:51:25;100830.50;;;9.70;100.00
71970;BME280;59838;52.152;5.436;2023-12-28T04:53:52;100825.16;;;9.72;100.00
71970;BME280;59838;52.152;5.436;2023-12-28T04:56:19;100838.94;;;9.72;100.00
71970;BME280;59838;52.152;5.436;2023-12-28T04:58:45;100831.97;;;9.73;100.00
71970;BME280;59838;52.152;5.436;2023-12-28T05:01:12;100820.44;;;9.75;100.00
71970;BME280;59838;52.152;5.436;2023-12-28T05:03:39;100831.25;;;9.79;100.00
71970;BME280;59838;52.152;5.436;2023-12-28T05:06:05;100834.47;;;9.81;100.00
71970;BME280;59838;52.152;5.436;2023-12-28T05:08:32;100832.84;;;9.80;100.00
71970;BME280;59838;52.152;5.436;2023-12-28T05:10:58;100837.41;;;9.78;100.00
71970;BME280;59838;52.152;5.436;2023-12-28T05:13:25;100838.22;;;9.78;100.00
71970;BME280;59838;52.152;5.436;2023-12-28T05:15:52;100845.66;;;9.81;100.00
71970;BME280;59838;52.152;5.436;2023-12-28T05:18:18;100851.31;;;9.85;100.00
71970;BME280;59838;52.152;5.436;2023-12-28T05:20:45;100843.19;;;9.88;100.00
71970;BME280;59838;52.152;5.436;2023-12-28T05:23:12;100839.84;;;9.94;100.00
71970;BME280;59838;52.152;5.436;2023-12-28T05:25:38;100846.66;;;9.95;100.00
71970;BME280;59838;52.152;5.436;2023-12-28T05:28:04;100834.31;;;9.97;100.00
71970;BME280;59838;52.152;5.436;2023-12-28T05:30:31;100849.88;;;9.97;100.00
71970;BME280;59838;52.152;5.436;2023-12-28T05:32:58;100841.56;;;10.02;100.00
71970;BME280;59838;52.152;5.436;2023-12-28T05:35:24;100850.16;;;10.02;100.00
71970;BME280;59838;52.152;5.436;2023-12-28T05:37:51;100847.56;;;10.02;100.00
71970;BME280;59838;52.152;5.436;2023-12-28T05:40:17;100842.84;;;10.06;100.00
71970;BME280;59838;52.152;5.436;2023-12-28T05:42:44;100843.28;;;10.10;100.00
71970;BME280;59838;52.152;5.436;2023-12-28T05:45:10;100831.72;;;10.12;100.00
71970;BME280;59838;52.152;5.436;2023-12-28T05:47:37;100853.94;;;10.15;100.00
71970;BME280;59838;52.152;5.436;2023-12-28T05:50:04;100840.75;;;10.16;100.00
71970;BME280;59838;52.152;5.436;2023-12-28T05:52:32;100846.94;;;10.15;100.00
71970;BME280;59838;52.152;5.436;2023-12-28T05:54:58;100832.78;;;10.18;100.00
71970;BME280;59838;52.152;5.436;2023-12-28T05:57:25;100841.75;;;10.15;100.00
71970;BME280;59838;52.152;5.436;2023-12-28T05:59:57;100854.53;;;10.17;100.00
71970;BME280;59838;52.152;5.436;2023-12-28T06:02:23;100856.16;;;10.18;100.00
71970;BME280;59838;52.152;5.436;2023-12-28T06:04:50;100852.13;;;10.15;100.00
71970;BME280;59838;52.152;5.436;2023-12-28T06:07:17;100864.31;;;10.15;100.00
71970;BME280;59838;52.152;5.436;2023-12-28T06:09:43;100856.97;;;10.18;100.00
71970;BME280;59838;52.152;5.436;2023-12-28T06:12:11;100869.16;;;10.18;100.00
71970;BME280;59838;52.152;5.436;2023-12-28T06:14:37;100874.16;;;10.19;100.00
71970;BME280;59838;52.152;5.436;2023-12-28T06:17:04;100845.78;;;10.18;100.00
71970;BME280;59838;52.152;5.436;2023-12-28T06:19:30;100853.38;;;10.19;100.00
71970;BME280;59838;52.152;5.436;2023-12-28T06:21:57;100857.41;;;10.22;100.00
71970;BME280;59838;52.152;5.436;2023-12-28T06:24:24;100866.81;;;10.23;100.00
71970;BME280;59838;52.152;5.436;2023-12-28T06:26:51;100860.66;;;10.24;100.00
71970;BME280;59838;52.152;5.436;2023-12-28T06:29:17;100872.00;;;10.23;100.00
71970;BME280;59838;52.152;5.436;2023-12-28T06:31:44;100872.97;;;10.22;100.00
71970;BME280;59838;52.152;5.436;2023-12-28T06:34:11;100880.59;;;10.23;100.00
71970;BME280;59838;52.152;5.436;2023-12-28T06:36:37;100883.38;;;10.22;100.00
71970;BME280;59838;52.152;5.436;2023-12-28T06:39:04;100893.75;;;10.22;100.00
71970;BME280;59838;52.152;5.436;2023-12-28T06:41:30;100899.78;;;10.22;100.00
71970;BME280;59838;52.152;5.436;2023-12-28T06:43:57;100866.03;;;10.22;100.00
71970;BME280;59838;52.152;5.436;2023-12-28T06:46:23;100890.19;;;10.23;100.00
71970;BME280;59838;52.152;5.436;2023-12-28T06:48:50;100879.44;;;10.26;100.00
71970;BME280;59838;52.152;5.436;2023-12-28T06:51:20;100902.00;;;10.25;100.00
71970;BME280;59838;52.152;5.436;2023-12-28T06:53:48;100896.16;;;10.23;100.00
71970;BME280;59838;52.152;5.436;2023-12-28T06:56:16;100892.78;;;10.23;100.00
71970;BME280;59838;52.152;5.436;2023-12-28T06:58:43;100897.97;;;10.23;100.00
71970;BME280;59838;52.152;5.436;2023-12-28T07:01:09;100890.00;;;10.24;100.00
71970;BME280;59838;52.152;5.436;2023-12-28T07:03:37;100896.00;;;10.25;100.00
71970;BME280;59838;52.152;5.436;2023-12-28T07:06:04;100893.41;;;10.25;100.00
71970;BME280;59838;52.152;5.436;2023-12-28T07:08:31;100903.78;;;10.25;100.00
71970;BME280;59838;52.152;5.436;2023-12-28T07:11:02;100906.56;;;10.23;100.00
71970;BME280;59838;52.152;5.436;2023-12-28T07:13:28;100900.91;;;10.20;100.00
71970;BME280;59838;52.152;5.436;2023-12-28T07:15:55;100905.50;;;10.18;100.00
71970;BME280;59838;52.152;5.436;2023-12-28T07:18:25;100899.03;;;10.14;100.00
71970;BME280;59838;52.152;5.436;2023-12-28T07:20:52;100910.16;;;10.07;100.00
71970;BME280;59838;52.152;5.436;2023-12-28T07:23:18;100909.31;;;10.07;100.00
71970;BME280;59838;52.152;5.436;2023-12-28T07:25:45;100931.72;;;10.08;100.00
71970;BME280;59838;52.152;5.436;2023-12-28T07:28:12;100922.03;;;10.02;100.00
71970;BME280;59838;52.152;5.436;2023-12-28T07:30:39;100933.56;;;9.99;100.00
71970;BME280;59838;52.152;5.436;2023-12-28T07:33:07;100926.31;;;9.95;100.00
71970;BME280;59838;52.152;5.436;2023-12-28T07:35:34;100936.06;;;9.93;100.00
71970;BME280;59838;52.152;5.436;2023-12-28T07:38:00;100929.16;;;9.85;100.00
71970;BME280;59838;52.152;5.436;2023-12-28T07:40:27;100951.50;;;9.86;100.00
71970;BME280;59838;52.152;5.436;2023-12-28T07:42:54;100929.16;;;9.85;100.00
71970;BME280;59838;52.152;5.436;2023-12-28T07:45:20;100936.59;;;9.88;100.00
71970;BME280;59838;52.152;5.436;2023-12-28T07:47:50;100946.31;;;9.86;100.00
71970;BME280;59838;52.152;5.436;2023-12-28T07:50:17;100949.09;;;9.84;100.00
71970;BME280;59838;52.152;5.436;2023-12-28T07:52:45;100955.09;;;9.85;100.00
71970;BME280;59838;52.152;5.436;2023-12-28T07:55:12;100956.53;;;9.87;100.00
71970;BME280;59838;52.152;5.436;2023-12-28T07:57:39;100956.88;;;9.84;100.00
71970;BME280;59838;52.152;5.436;2023-12-28T08:00:07;100970.69;;;9.85;100.00
71970;BME280;59838;52.152;5.436;2023-12-28T08:02:34;100976.31;;;9.88;100.00
71970;BME280;59838;52.152;5.436;2023-12-28T08:05:00;100969.63;;;9.94;100.00
71970;BME280;59838;52.152;5.436;2023-12-28T08:07:27;100969.25;;;9.97;100.00
71970;BME280;59838;52.152;5.436;2023-12-28T08:09:53;100963.91;;;9.99;100.00
71970;BME280;59838;52.152;5.436;2023-12-28T08:12:21;100961.13;;;10.00;100.00
71970;BME280;59838;52.152;5.436;2023-12-28T08:14:49;100944.06;;;10.06;100.00
71970;BME280;59838;52.152;5.436;2023-12-28T08:17:15;100939.50;;;10.08;100.00
71970;BME280;59838;52.152;5.436;2023-12-28T08:19:42;100953.09;;;10.10;100.00
71970;BME280;59838;52.152;5.436;2023-12-28T08:22:09;100958.28;;;10.10;100.00
71970;BME280;59838;52.152;5.436;2023-12-28T08:24:35;100948.69;;;10.11;100.00
71970;BME280;59838;52.152;5.436;2023-12-28T08:27:02;100953.53;;;10.14;100.00
71970;BME280;59838;52.152;5.436;2023-12-28T08:29:29;100965.38;;;10.16;100.00
71970;BME280;59838;52.152;5.436;2023-12-28T08:31:56;100979.81;;;10.19;100.00
71970;BME280;59838;52.152;5.436;2023-12-28T08:34:22;100965.56;;;10.15;100.00
71970;BME280;59838;52.152;5.436;2023-12-28T08:36:49;100954.19;;;10.16;100.00
71970;BME280;59838;52.152;5.436;2023-12-28T08:39:16;100972.81;;;10.19;100.00
71970;BME280;59838;52.152;5.436;2023-12-28T08:41:42;100960.47;;;10.21;100.00
71970;BME280;59838;52.152;5.436;2023-12-28T08:44:09;100962.25;;;10.21;100.00
71970;BME280;59838;52.152;5.436;2023-12-28T08:46:35;100977.66;;;10.22;100.00
71970;BME280;59838;52.152;5.436;2023-12-28T08:49:02;100982.03;;;10.22;100.00
71970;BME280;59838;52.152;5.436;2023-12-28T08:51:29;100976.66;;;10.23;100.00
71970;BME280;59838;52.152;5.436;2023-12-28T08:53:55;100968.69;;;10.25;100.00
71970;BME280;59838;52.152;5.436;2023-12-28T08:56:22;100988.16;;;10.29;100.00
71970;BME280;59838;52.152;5.436;2023-12-28T08:58:49;100989.78;;;10.30;100.00
71970;BME280;59838;52.152;5.436;2023-12-28T09:01:19;101004.34;;;10.31;100.00
71970;BME280;59838;52.152;5.436;2023-12-28T09:03:51;101000.81;;;10.32;100.00
71970;BME280;59838;52.152;5.436;2023-12-28T09:06:19;100999.00;;;10.33;100.00
71970;BME280;59838;52.152;5.436;2023-12-28T09:08:50;100995.63;;;10.32;100.00
71970;BME280;59838;52.152;5.436;2023-12-28T09:11:17;100992.66;;;10.35;100.00
71970;BME280;59838;52.152;5.436;2023-12-28T09:13:44;100999.47;;;10.36;100.00
71970;BME280;59838;52.152;5.436;2023-12-28T09:16:13;100980.94;;;10.39;100.00
71970;BME280;59838;52.152;5.436;2023-12-28T09:18:41;100988.38;;;10.42;100.00
71970;BME280;59838;52.152;5.436;2023-12-28T09:21:08;101003.78;;;10.44;100.00
71970;BME280;59838;52.152;5.436;2023-12-28T09:23:35;100997.78;;;10.43;100.00
71970;BME280;59838;52.152;5.436;2023-12-28T09:26:03;100990.97;;;10.42;100.00
71970;BME280;59838;52.152;5.436;2023-12-28T09:28:30;100983.00;;;10.44;100.00
71970;BME280;59838;52.152;5.436;2023-12-28T09:30:57;101005.22;;;10.47;100.00
71970;BME280;59838;52.152;5.436;2023-12-28T09:33:23;101007.00;;;10.46;100.00
71970;BME280;59838;52.152;5.436;2023-12-28T09:35:50;101012.38;;;10.45;100.00
71970;BME280;59838;52.152;5.436;2023-12-28T09:38:19;101024.19;;;10.47;100.00
71970;BME280;59838;52.152;5.436;2023-12-28T09:40:45;101017.31;;;10.54;100.00
71970;BME280;59838;52.152;5.436;2023-12-28T09:43:25;101021.00;;;10.60;100.00
71970;BME280;59838;52.152;5.436;2023-12-28T09:45:53;101026.47;;;10.65;100.00
71970;BME280;59838;52.152;5.436;2023-12-28T09:48:21;101032.75;;;10.71;100.00
71970;BME280;59838;52.152;5.436;2023-12-28T09:50:53;101035.00;;;10.74;100.00
71970;BME280;59838;52.152;5.436;2023-12-28T09:53:25;101042.59;;;10.75;100.00
71970;BME280;59838;52.152;5.436;2023-12-28T09:55:52;101035.44;;;10.77;99.62
71970;BME280;59838;52.152;5.436;2023-12-28T09:58:20;101035.25;;;10.79;100.00
71970;BME280;59838;52.152;5.436;2023-12-28T10:00:49;101030.06;;;10.79;99.98
71970;BME280;59838;52.152;5.436;2023-12-28T10:03:17;101032.50;;;10.81;100.00
71970;BME280;59838;52.152;5.436;2023-12-28T10:05:45;101021.91;;;10.82;100.00
71970;BME280;59838;52.152;5.436;2023-12-28T10:08:13;101039.47;;;10.80;99.66
71970;BME280;59838;52.152;5.436;2023-12-28T10:10:41;101049.84;;;10.80;100.00
71970;BME280;59838;52.152;5.436;2023-12-28T10:13:08;101017.88;;;10.79;98.87
71970;BME280;59838;52.152;5.436;2023-12-28T10:15:36;101038.47;;;10.81;98.85
71970;BME280;59838;52.152;5.436;2023-12-28T10:18:04;101053.63;;;10.77;100.00
71970;BME280;59838;52.152;5.436;2023-12-28T10:20:32;101055.66;;;10.67;100.00
71970;BME280;59838;52.152;5.436;2023-12-28T10:22:59;101052.63;;;10.64;100.00
71970;BME280;59838;52.152;5.436;2023-12-28T10:25:30;101039.44;;;10.65;100.00
71970;BME280;59838;52.152;5.436;2023-12-28T10:27:58;101050.47;;;10.67;100.00
71970;BME280;59838;52.152;5.436;2023-12-28T10:30:25;101043.50;;;10.68;100.00
71970;BME280;59838;52.152;5.436;2023-12-28T10:32:52;101044.47;;;10.67;100.00
71970;BME280;59838;52.152;5.436;2023-12-28T10:35:19;101033.47;;;10.65;100.00
71970;BME280;59838;52.152;5.436;2023-12-28T10:37:47;101051.47;;;10.66;100.00
71970;BME280;59838;52.152;5.436;2023-12-28T10:40:20;101050.94;;;10.71;100.00
71970;BME280;59838;52.152;5.436;2023-12-28T10:42:58;101040.81;;;10.76;98.84
71970;BME280;59838;52.152;5.436;2023-12-28T10:45:32;101050.69;;;10.81;98.14
71970;BME280;59838;52.152;5.436;2023-12-28T10:48:09;101039.72;;;10.85;98.04
71970;BME280;59838;52.152;5.436;2023-12-28T10:50:40;101039.38;;;10.88;97.91
71970;BME280;59838;52.152;5.436;2023-12-28T10:53:37;101044.03;;;10.93;97.52
71970;BME280;59838;52.152;5.436;2023-12-28T10:56:24;101030.31;;;10.99;98.29
71970;BME280;59838;52.152;5.436;2023-12-28T11:01:46;101042.16;;;11.02;96.93
71970;BME280;59838;52.152;5.436;2023-12-28T11:06:44;101050.41;;;11.05;97.18
71970;BME280;59838;52.152;5.436;2023-12-28T11:09:13;101037.59;;;11.04;97.11
71970;BME280;59838;52.152;5.436;2023-12-28T11:11:43;101024.94;;;11.01;96.34
71970;BME280;59838;52.152;5.436;2023-12-28T11:14:11;101035.53;;;10.99;97.20
71970;BME280;59838;52.152;5.436;2023-12-28T11:16:38;101030.31;;;10.99;96.54
71970;BME280;59838;52.152;5.436;2023-12-28T11:19:05;101032.91;;;10.99;96.87
71970;BME280;59838;52.152;5.436;2023-12-28T11:21:34;101026.94;;;10.98;97.10
71970;BME280;59838;52.152;5.436;2023-12-28T11:24:01;101005.31;;;10.98;97.00
71970;BME280;59838;52.152;5.436;2023-12-28T11:26:28;101022.69;;;10.97;97.09
71970;BME280;59838;52.152;5.436;2023-12-28T11:29:02;101027.91;;;10.97;97.06
71970;BME280;59838;52.152;5.436;2023-12-28T11:31:31;101018.94;;;11.00;97.92
71970;BME280;59838;52.152;5.436;2023-12-28T11:34:00;101020.72;;;11.00;96.74
71970;BME280;59838;52.152;5.436;2023-12-28T11:36:33;101019.38;;;11.04;96.66
71970;BME280;59838;52.152;5.436;2023-12-28T11:39:03;100996.59;;;11.06;96.00
71970;BME280;59838;52.152;5.436;2023-12-28T11:41:31;101019.66;;;11.09;96.72
71970;BME280;59838;52.152;5.436;2023-12-28T11:44:03;101007.25;;;11.11;96.30
71970;BME280;59838;52.152;5.436;2023-12-28T11:46:34;101015.72;;;11.13;96.69
71970;BME280;59838;52.152;5.436;2023-12-28T11:49:08;101018.31;;;11.13;95.67
71970;BME280;59838;52.152;5.436;2023-12-28T11:51:37;101017.66;;;11.11;95.83
71970;BME280;59838;52.152;5.436;2023-12-28T11:54:04;101019.47;;;11.10;95.72
71970;BME280;59838;52.152;5.436;2023-12-28T11:56:31;101034.44;;;11.08;95.64
71970;BME280;59838;52.152;5.436;2023-12-28T11:58:59;101022.78;;;11.04;96.43
71970;BME280;59838;52.152;5.436;2023-12-28T12:01:25;101029.97;;;11.02;96.09
71970;BME280;59838;52.152;5.436;2023-12-28T12:03:53;101030.75;;;11.03;95.72
71970;BME280;59838;52.152;5.436;2023-12-28T12:06:20;101025.56;;;11.03;95.77
71970;BME280;59838;52.152;5.436;2023-12-28T12:08:47;101025.56;;;11.03;95.07
71970;BME280;59838;52.152;5.436;2023-12-28T12:11:13;101013.56;;;11.02;95.17
71970;BME280;59838;52.152;5.436;2023-12-28T12:13:40;101002.16;;;11.03;96.29
71970;BME280;59838;52.152;5.436;2023-12-28T12:16:06;101001.97;;;11.04;95.92
71970;BME280;59838;52.152;5.436;2023-12-28T12:18:34;101001.63;;;11.07;95.82
71970;BME280;59838;52.152;5.436;2023-12-28T12:21:02;100977.25;;;11.08;95.83
71970;BME280;59838;52.152;5.436;2023-12-28T12:23:29;100991.31;;;11.14;95.51
71970;BME280;59838;52.152;5.436;2023-12-28T12:25:56;100981.56;;;11.16;95.47
71970;BME280;59838;52.152;5.436;2023-12-28T12:28:22;100985.91;;;11.15;95.18
71970;BME280;59838;52.152;5.436;2023-12-28T12:30:54;100988.16;;;11.19;95.94
71970;BME280;59838;52.152;5.436;2023-12-28T12:33:22;100982.16;;;11.18;94.74
71970;BME280;59838;52.152;5.436;2023-12-28T12:35:50;100985.75;;;11.17;94.88
71970;BME280;59838;52.152;5.436;2023-12-28T12:38:17;100989.34;;;11.16;94.64
71970;BME280;59838;52.152;5.436;2023-12-28T12:40:43;100999.75;;;11.16;93.62
71970;BME280;59838;52.152;5.436;2023-12-28T12:43:10;100981.34;;;11.18;95.27
71970;BME280;59838;52.152;5.436;2023-12-28T12:45:37;100988.34;;;11.17;94.41
71970;BME280;59838;52.152;5.436;2023-12-28T12:48:05;100985.75;;;11.17;94.45
71970;BME280;59838;52.152;5.436;2023-12-28T12:50:32;100990.16;;;11.16;94.64
71970;BME280;59838;52.152;5.436;2023-12-28T12:53:04;100999.94;;;11.14;94.47
71970;BME280;59838;52.152;5.436;2023-12-28T12:55:31;100989.88;;;11.11;94.37